Terminal Aerodrome Forecast
Issued by NWS

Home | Current Version | Previous Version | Text Only | Print | Product List | Glossary On
Versions: 1 2 3 4 5 6 7 8 9 10 11 12 13
392
FTPA31 PHFO 171739
TAFHJH
TAF
PHJH 171739Z 1718/1818 05011G20KT P6SM FEW030 SCT040
     FM171900 05018G28KT P6SM FEW030 SCT040
     FM180700 05014G23KT P6SM FEW030 SCT040
      AMD NOT SKED AFT 180400=

USA.gov is the U.S. government's official web portal to all federal, state and local government web resources and services.